createdAt,value
2023-03-02T00:00:05.384Z,606.4
2023-03-02T00:01:07.901Z,606.3
2023-03-02T00:02:09.772Z,606.4
2023-03-02T00:03:12.277Z,606.6
2023-03-02T00:04:14.824Z,606.7
2023-03-02T00:05:17.388Z,607
2023-03-02T00:06:19.689Z,606.6
2023-03-02T00:07:21.956Z,606.2
2023-03-02T00:08:24.498Z,606.4
2023-03-02T00:09:27.098Z,606.8
2023-03-02T00:10:29.320Z,606.5
2023-03-02T00:11:31.867Z,607
2023-03-02T00:12:34.438Z,607.3
2023-03-02T00:13:36.666Z,607
2023-03-02T00:14:38.933Z,607.2
2023-03-02T00:15:41.915Z,607.2
2023-03-02T00:16:44.455Z,606.9
2023-03-02T00:17:46.961Z,607.3
2023-03-02T00:18:49.475Z,606.9
2023-03-02T00:19:51.961Z,606.8
2023-03-02T00:20:54.489Z,606.5
2023-03-02T00:21:57.279Z,606.7
2023-03-02T00:22:59.774Z,606.8
2023-03-02T00:24:02.079Z,606.7
2023-03-02T00:25:04.350Z,606.9
2023-03-02T00:26:06.870Z,606.8
2023-03-02T00:27:09.143Z,606.8
2023-03-02T00:28:11.409Z,606.5
2023-03-02T00:29:13.905Z,606.7
2023-03-02T00:30:16.205Z,606.3
2023-03-02T00:31:18.502Z,606.9
2023-03-02T00:32:21.314Z,606.9
2023-03-02T00:33:23.583Z,606.7
2023-03-02T00:34:26.080Z,606.8
2023-03-02T00:35:28.937Z,606.3
2023-03-02T00:36:31.498Z,606.3
2023-03-02T00:37:34.107Z,606.8
2023-03-02T00:38:36.366Z,606.6
2023-03-02T00:39:38.602Z,606.8
2023-03-02T00:40:40.837Z,606.8
2023-03-02T00:41:43.327Z,606.7
2023-03-02T00:42:45.812Z,607
2023-03-02T00:43:48.326Z,606.8
2023-03-02T00:44:50.564Z,606.5
2023-03-02T00:45:52.836Z,606.5
2023-03-02T00:46:55.675Z,606.5
2023-03-02T00:47:57.642Z,606.5
2023-03-02T00:48:59.857Z,606.4
2023-03-02T00:50:02.153Z,606.2
2023-03-02T00:51:03.828Z,606.5
2023-03-02T00:52:06.346Z,606.4
2023-03-02T00:53:08.660Z,606.3
2023-03-02T00:54:11.190Z,606.4
2023-03-02T00:55:13.138Z,606.4
2023-03-02T00:56:15.128Z,606.2
2023-03-02T00:57:17.634Z,606.6
2023-03-02T00:58:20.113Z,606.5
2023-03-02T00:59:22.622Z,606.9
2023-03-02T01:00:24.886Z,607
2023-03-02T01:01:27.084Z,607.6
2023-03-02T01:02:30.253Z,607.5
2023-03-02T01:03:33.024Z,607.8
2023-03-02T01:04:35.264Z,607.6
2023-03-02T01:05:37.489Z,608.1
2023-03-02T01:06:40.069Z,608.2
2023-03-02T01:07:42.596Z,608.2
2023-03-02T01:08:44.892Z,608.1
2023-03-02T01:09:47.105Z,608.2
2023-03-02T01:10:49.629Z,608.3
2023-03-02T01:11:52.114Z,608.5
2023-03-02T01:12:54.070Z,609
2023-03-02T01:13:56.571Z,608.9
2023-03-02T01:14:59.096Z,609.2
2023-03-02T01:16:01.993Z,609.4
2023-03-02T01:17:04.005Z,609.4
2023-03-02T01:18:06.483Z,609.3
2023-03-02T01:19:08.983Z,609.6
2023-03-02T01:20:11.466Z,609.6
2023-03-02T01:21:13.429Z,609
2023-03-02T01:22:16.024Z,608.9
2023-03-02T01:23:18.530Z,609.6
2023-03-02T01:24:20.255Z,609.5
2023-03-02T01:25:22.769Z,609.5
2023-03-02T01:26:25.053Z,609.6
2023-03-02T01:27:27.536Z,609.8
2023-03-02T01:28:30.028Z,610.1
2023-03-02T01:29:32.250Z,609.9
2023-03-02T01:30:34.448Z,609.9
2023-03-02T01:31:37.233Z,609.6
2023-03-02T01:32:40.033Z,609.8
2023-03-02T01:33:42.659Z,610
2023-03-02T01:34:44.331Z,610
2023-03-02T01:35:47.043Z,610
2023-03-02T01:36:49.585Z,610.1
2023-03-02T01:37:51.535Z,610.9
2023-03-02T01:38:54.090Z,610.5
2023-03-02T01:39:56.665Z,610.9
2023-03-02T01:40:59.136Z,610.8
2023-03-02T01:42:01.668Z,610.5
2023-03-02T01:43:04.153Z,610.8
2023-03-02T01:44:06.147Z,611.2
2023-03-02T01:45:08.640Z,611
2023-03-02T01:46:11.483Z,610.9
2023-03-02T01:47:14.012Z,611
2023-03-02T01:48:16.520Z,610.8
2023-03-02T01:49:18.512Z,610.9
2023-03-02T01:50:21.050Z,610.7
2023-03-02T01:51:23.559Z,610.2
2023-03-02T01:52:25.571Z,610.3
2023-03-02T01:53:27.521Z,609.9
2023-03-02T01:54:30.039Z,610.1
2023-03-02T01:55:32.631Z,610.3
2023-03-02T01:56:36.071Z,610.4
2023-03-02T01:57:38.384Z,610.5
2023-03-02T01:58:40.883Z,610.9
2023-03-02T01:59:43.367Z,611.2
2023-03-02T02:00:45.530Z,610.9
2023-03-02T02:01:48.054Z,611.4
2023-03-02T02:02:50.339Z,612.4
2023-03-02T02:03:52.677Z,611.8
2023-03-02T02:04:55.170Z,611.9
2023-03-02T02:05:56.819Z,611.7
2023-03-02T02:06:59.343Z,611.9
2023-03-02T02:08:01.023Z,612
2023-03-02T02:09:03.575Z,611.9
2023-03-02T02:10:06.106Z,611.8
2023-03-02T02:11:08.547Z,611.6
2023-03-02T02:12:11.051Z,611.7
2023-03-02T02:13:13.607Z,612.4
2023-03-02T02:14:15.855Z,612.2
2023-03-02T02:15:18.145Z,612.1
2023-03-02T02:16:20.483Z,612.4
2023-03-02T02:17:23.034Z,611.7
2023-03-02T02:18:25.522Z,611.8
2023-03-02T02:19:27.753Z,612
2023-03-02T02:20:30.307Z,611.7
2023-03-02T02:21:32.526Z,611.7
2023-03-02T02:22:35.062Z,611.2
2023-03-02T02:23:37.279Z,611.6
2023-03-02T02:24:39.489Z,611.5
2023-03-02T02:25:41.715Z,611.2
2023-03-02T02:26:44.292Z,611.1
2023-03-02T02:27:46.804Z,611.6
2023-03-02T02:28:49.309Z,612
2023-03-02T02:29:51.817Z,611.3
2023-03-02T02:30:54.297Z,612.1
2023-03-02T02:31:57.331Z,612.1
2023-03-02T02:32:59.610Z,612.6
2023-03-02T02:34:02.121Z,612.4
2023-03-02T02:35:04.341Z,612.7
2023-03-02T02:36:06.855Z,612.9
2023-03-02T02:37:09.380Z,613.1
2023-03-02T02:38:11.609Z,613.4
2023-03-02T02:39:14.128Z,613.2
2023-03-02T02:40:16.690Z,613.2
2023-03-02T02:41:19.397Z,613.4
2023-03-02T02:42:21.988Z,613.7
2023-03-02T02:43:24.478Z,613.3
2023-03-02T02:44:27.002Z,613.6
2023-03-02T02:45:29.370Z,614
2023-03-02T02:46:33.592Z,613.7
2023-03-02T02:47:36.273Z,614
2023-03-02T02:48:37.925Z,614.2
2023-03-02T02:49:40.542Z,613.8
2023-03-02T02:50:42.790Z,614.6
2023-03-02T02:51:44.982Z,614.2
2023-03-02T02:52:47.508Z,614.4
2023-03-02T02:53:49.999Z,614.4
2023-03-02T02:54:51.926Z,614.4
2023-03-02T02:55:54.123Z,614
2023-03-02T02:56:56.655Z,613.9
2023-03-02T02:57:59.222Z,613.9
2023-03-02T02:59:01.435Z,614.1
2023-03-02T03:00:03.757Z,614.3
2023-03-02T03:01:06.500Z,613.9
2023-03-02T03:02:09.148Z,613.9
2023-03-02T03:03:11.679Z,614.5
2023-03-02T03:04:14.727Z,614.6
2023-03-02T03:05:17.037Z,614.4
2023-03-02T03:06:19.552Z,614.6
2023-03-02T03:07:22.056Z,614.6
2023-03-02T03:08:24.291Z,614.5
2023-03-02T03:09:27.293Z,614.6
2023-03-02T03:10:29.824Z,613.9
2023-03-02T03:11:32.334Z,614.1
2023-03-02T03:12:34.854Z,614.4
2023-03-02T03:13:37.415Z,614.1
2023-03-02T03:14:39.973Z,614.5
2023-03-02T03:15:42.525Z,614.7
2023-03-02T03:16:45.303Z,614.5
2023-03-02T03:17:47.822Z,614.1
2023-03-02T03:18:49.482Z,614.5
2023-03-02T03:19:51.979Z,614.6
2023-03-02T03:20:54.533Z,614.9
2023-03-02T03:21:57.121Z,615.3
2023-03-02T03:22:59.624Z,614.8
2023-03-02T03:24:01.822Z,614.9
2023-03-02T03:25:04.370Z,615.1
2023-03-02T03:26:06.881Z,615.2
2023-03-02T03:27:08.800Z,615.1
2023-03-02T03:28:11.317Z,615.1
2023-03-02T03:29:13.947Z,614.9
2023-03-02T03:30:16.198Z,615.3
2023-03-02T03:31:19.070Z,614.6
2023-03-02T03:32:22.070Z,614.9
2023-03-02T03:33:24.312Z,614.2
2023-03-02T03:34:26.556Z,614.4
2023-03-02T03:35:29.103Z,614.3
2023-03-02T03:36:32.802Z,614.8
2023-03-02T03:37:35.227Z,614.6
2023-03-02T03:38:37.441Z,615.1
2023-03-02T03:39:39.089Z,615
2023-03-02T03:40:41.562Z,615.2
2023-03-02T03:41:44.057Z,615
2023-03-02T03:42:46.296Z,615.2
2023-03-02T03:43:48.830Z,615.3
2023-03-02T03:44:51.155Z,615
2023-03-02T03:45:53.934Z,615
2023-03-02T03:46:56.005Z,615.3
2023-03-02T03:47:57.972Z,615.3
2023-03-02T03:48:59.921Z,615.4
2023-03-02T03:50:01.881Z,615.6
2023-03-02T03:51:04.456Z,615.8
2023-03-02T03:52:07.028Z,615.6
2023-03-02T03:53:09.589Z,615.6
2023-03-02T03:54:11.545Z,615.6
2023-03-02T03:55:14.104Z,615.6
2023-03-02T03:56:16.616Z,615.4
2023-03-02T03:57:19.186Z,615.7
2023-03-02T03:58:21.905Z,615.9
2023-03-02T03:59:24.532Z,616
2023-03-02T04:00:27.100Z,615.5
2023-03-02T04:01:29.590Z,615.6
2023-03-02T04:02:32.535Z,615.5
2023-03-02T04:03:34.744Z,615.2
2023-03-02T04:04:37.422Z,615.1
2023-03-02T04:05:39.618Z,615
2023-03-02T04:06:41.823Z,615.6
2023-03-02T04:07:44.307Z,615.6
2023-03-02T04:08:46.540Z,615.6
2023-03-02T04:09:48.772Z,615.5
2023-03-02T04:10:51.002Z,615.5
2023-03-02T04:11:53.207Z,615.5
2023-03-02T04:12:55.301Z,615.6
2023-03-02T04:13:57.781Z,615.7
2023-03-02T04:15:00.316Z,616.1
2023-03-02T04:16:02.956Z,616.2
2023-03-02T04:17:05.528Z,616.2
2023-03-02T04:18:07.782Z,615.7
2023-03-02T04:19:10.294Z,616.2
2023-03-02T04:20:12.908Z,616.2
2023-03-02T04:21:15.397Z,616
2023-03-02T04:22:17.628Z,616
2023-03-02T04:23:19.331Z,615.7
2023-03-02T04:24:21.574Z,616.1
2023-03-02T04:25:23.774Z,616
2023-03-02T04:26:26.009Z,616.4
2023-03-02T04:27:27.702Z,615.9
2023-03-02T04:28:30.230Z,616.2
2023-03-02T04:29:32.795Z,616.2
2023-03-02T04:30:35.393Z,616
2023-03-02T04:31:38.155Z,616.4
2023-03-02T04:32:40.663Z,616
2023-03-02T04:33:43.227Z,615.8
2023-03-02T04:34:45.752Z,615.7
2023-03-02T04:35:48.200Z,616.2
2023-03-02T04:36:50.809Z,615.9
2023-03-02T04:37:53.374Z,615.4
2023-03-02T04:38:55.883Z,615.6
2023-03-02T04:39:58.132Z,615.6
2023-03-02T04:41:00.752Z,615.5
2023-03-02T04:42:03.320Z,615.5
2023-03-02T04:43:05.823Z,615.2
2023-03-02T04:44:08.073Z,615
2023-03-02T04:45:10.507Z,615.1
2023-03-02T04:46:12.994Z,615.2
2023-03-02T04:47:15.595Z,614.9
2023-03-02T04:48:18.092Z,614.9
2023-03-02T04:49:20.641Z,614.8
2023-03-02T04:50:22.866Z,615.4
2023-03-02T04:51:25.298Z,615.1
2023-03-02T04:52:27.790Z,614.7
2023-03-02T04:53:30.286Z,615.2
2023-03-02T04:54:32.495Z,615.4
2023-03-02T04:55:34.743Z,615.9
2023-03-02T04:56:37.123Z,615.7
2023-03-02T04:57:39.635Z,615.8
2023-03-02T04:58:41.857Z,615.8
2023-03-02T04:59:44.140Z,615.7
2023-03-02T05:00:46.387Z,615.9
2023-03-02T05:01:49.492Z,615.8
2023-03-02T05:02:52.121Z,616.2
2023-03-02T05:03:54.355Z,616.8
2023-03-02T05:04:57.287Z,616
2023-03-02T05:05:59.810Z,615.9
2023-03-02T05:07:02.018Z,615.4
2023-03-02T05:08:04.241Z,615.7
2023-03-02T05:09:05.953Z,615.6
2023-03-02T05:10:07.637Z,615.7
2023-03-02T05:11:09.765Z,615.6
2023-03-02T05:12:12.247Z,615.4
2023-03-02T05:13:14.456Z,615.6
2023-03-02T05:14:16.760Z,615.2
2023-03-02T05:15:18.731Z,614.8
2023-03-02T05:16:21.761Z,615.5
2023-03-02T05:17:24.046Z,615.6
2023-03-02T05:18:26.680Z,615.2
2023-03-02T05:19:28.929Z,615.2
2023-03-02T05:20:31.497Z,615.4
2023-03-02T05:21:33.438Z,614.9
2023-03-02T05:22:35.639Z,615.3
2023-03-02T05:23:37.896Z,615.3
2023-03-02T05:24:40.398Z,615.6
2023-03-02T05:25:42.916Z,615.8
2023-03-02T05:26:45.467Z,615.2
2023-03-02T05:27:48.405Z,615
2023-03-02T05:29:56.604Z,615.2
2023-03-02T05:30:58.822Z,615.3
2023-03-02T05:32:01.836Z,615.2
2023-03-02T05:33:04.474Z,615
2023-03-02T05:34:07.150Z,615.2
2023-03-02T05:35:09.646Z,615
2023-03-02T05:36:12.338Z,615
2023-03-02T05:37:14.815Z,615.3
2023-03-02T05:38:17.382Z,615.3
2023-03-02T05:39:19.384Z,615.4
2023-03-02T05:40:21.929Z,615
2023-03-02T05:41:24.146Z,615.4
2023-03-02T05:42:26.421Z,614.8
2023-03-02T05:43:28.742Z,614.8
2023-03-02T05:44:30.959Z,615.2
2023-03-02T05:45:33.487Z,615.2
2023-03-02T05:46:37.649Z,615.5
2023-03-02T05:47:40.234Z,615.5
2023-03-02T05:48:42.784Z,615.1
2023-03-02T05:49:45.067Z,615.7
2023-03-02T05:50:47.565Z,615.4
2023-03-02T05:51:50.383Z,615.3
2023-03-02T05:52:52.634Z,614.7
2023-03-02T05:53:55.150Z,614.9
2023-03-02T05:56:02.679Z,614.7
2023-03-02T05:57:05.212Z,614.9
2023-03-02T05:58:07.444Z,614.4
2023-03-02T05:59:10.010Z,614.5
2023-03-02T06:00:12.653Z,614.9
2023-03-02T06:02:20.086Z,614.3
2023-03-02T06:03:23.026Z,614.6
2023-03-02T06:04:25.588Z,614.9
2023-03-02T06:05:28.194Z,615
2023-03-02T06:07:38.341Z,615.2
2023-03-02T06:08:40.832Z,615
2023-03-02T06:09:43.324Z,614.7
2023-03-02T06:10:45.816Z,614.7
2023-03-02T06:11:48.323Z,614.7
2023-03-02T06:12:50.843Z,614.6
2023-03-02T06:13:53.367Z,614.4
2023-03-02T06:14:55.589Z,614.5
2023-03-02T06:15:58.543Z,614.7
2023-03-02T06:17:01.217Z,615
2023-03-02T06:18:03.741Z,614.5
2023-03-02T06:19:06.499Z,614.9
2023-03-02T06:20:09.193Z,614.7
2023-03-02T06:21:11.814Z,614.5
2023-03-02T06:22:14.335Z,614.2
2023-03-02T06:23:16.613Z,613.9
2023-03-02T06:24:19.118Z,614.1
2023-03-02T06:25:21.626Z,614.1
2023-03-02T06:26:24.276Z,613.7
2023-03-02T06:27:26.348Z,613.5
2023-03-02T06:28:28.690Z,613.7
2023-03-02T06:29:30.916Z,613.5
2023-03-02T06:30:32.863Z,613.7
2023-03-02T06:31:35.608Z,613.8
2023-03-02T06:32:38.325Z,613.7
2023-03-02T06:33:40.848Z,613.6
2023-03-02T06:34:43.571Z,613.5
2023-03-02T06:35:46.882Z,613.2
2023-03-02T06:36:49.598Z,613.2
2023-03-02T06:37:52.166Z,612.9
2023-03-02T06:38:54.493Z,613.4
2023-03-02T06:39:56.742Z,613.4
2023-03-02T06:40:58.969Z,613.3
2023-03-02T06:42:01.517Z,613.3
2023-03-02T06:43:05.960Z,613.5
2023-03-02T06:44:08.323Z,613.3
2023-03-02T06:45:10.620Z,613
2023-03-02T06:46:13.621Z,613.2
2023-03-02T06:47:15.844Z,613.1
2023-03-02T06:48:18.073Z,613.4
2023-03-02T06:49:20.605Z,613.2
2023-03-02T06:50:23.120Z,613.5
2023-03-02T06:51:25.351Z,613.7
2023-03-02T06:52:27.972Z,613.7
2023-03-02T06:53:30.497Z,613.6
2023-03-02T06:54:32.787Z,613.3
2023-03-02T06:55:34.748Z,613.2
2023-03-02T06:56:40.694Z,613.2
2023-03-02T06:57:45.336Z,613.4
2023-03-02T06:58:47.860Z,613.4
2023-03-02T06:59:50.096Z,613.5
2023-03-02T07:00:52.267Z,613.3
2023-03-02T07:01:54.790Z,613
2023-03-02T07:02:57.084Z,613
2023-03-02T07:03:59.358Z,613
2023-03-02T07:05:01.678Z,612.9
2023-03-02T07:06:03.947Z,612.8
2023-03-02T07:07:06.698Z,613
2023-03-02T07:08:08.991Z,612.8
2023-03-02T07:09:11.253Z,612.6
2023-03-02T07:10:13.802Z,613.1
2023-03-02T07:11:16.310Z,612.9
2023-03-02T07:12:18.528Z,612.5
2023-03-02T07:13:21.064Z,613
2023-03-02T07:14:23.574Z,613
2023-03-02T07:15:25.870Z,612.9
2023-03-02T07:16:28.085Z,613
2023-03-02T07:17:30.668Z,612.4
2023-03-02T07:18:32.612Z,612.9
2023-03-02T07:19:35.116Z,612.4
2023-03-02T07:20:37.390Z,612
2023-03-02T07:21:39.920Z,611.9
2023-03-02T07:22:42.536Z,611.6
2023-03-02T07:23:45.128Z,611.9
2023-03-02T07:24:47.094Z,612.4
2023-03-02T07:25:49.384Z,612.2
2023-03-02T07:26:51.633Z,612.5
2023-03-02T07:27:53.852Z,612.5
2023-03-02T07:28:56.342Z,612.1
2023-03-02T07:29:58.632Z,612.1
2023-03-02T07:31:01.638Z,612.2
2023-03-02T07:32:04.258Z,612.2
2023-03-02T07:33:06.554Z,612.2
2023-03-02T07:34:08.802Z,612
2023-03-02T07:35:11.432Z,611.8
2023-03-02T07:36:13.999Z,611.7
2023-03-02T07:37:16.537Z,612
2023-03-02T07:38:19.089Z,612
2023-03-02T07:39:21.714Z,611.6
2023-03-02T07:40:23.946Z,611.7
2023-03-02T07:41:26.218Z,611.8
2023-03-02T07:42:28.747Z,611.4
2023-03-02T07:43:31.020Z,611.3
2023-03-02T07:44:33.618Z,611.3
2023-03-02T07:45:35.842Z,610.9
2023-03-02T07:46:38.874Z,611.2
2023-03-02T07:47:41.127Z,611.2
2023-03-02T07:48:43.359Z,611.4
2023-03-02T07:49:45.308Z,611.2
2023-03-02T07:50:47.808Z,610.9
2023-03-02T07:51:50.426Z,611
2023-03-02T07:52:52.997Z,610.5
2023-03-02T07:53:55.583Z,610.5
2023-03-02T07:54:57.982Z,610.5
2023-03-02T07:56:00.226Z,610.5
2023-03-02T07:57:02.624Z,610.7
2023-03-02T07:58:04.870Z,610.1
2023-03-02T07:59:07.124Z,610
2023-03-02T08:00:08.822Z,610.3
2023-03-02T08:01:11.325Z,610.3
2023-03-02T08:02:13.749Z,610.1
2023-03-02T08:03:16.681Z,610.8
2023-03-02T08:04:19.224Z,610.8
2023-03-02T08:05:21.765Z,610.6
2023-03-02T08:06:24.009Z,610.3
2023-03-02T08:07:25.981Z,610.3
2023-03-02T08:08:28.249Z,610.3
2023-03-02T08:09:30.928Z,610.3
2023-03-02T08:10:33.309Z,610.6
2023-03-02T08:11:36.768Z,610.5
2023-03-02T08:12:39.436Z,610.3
2023-03-02T08:13:41.988Z,610
2023-03-02T08:14:44.606Z,610.1
2023-03-02T08:15:47.337Z,610.1
2023-03-02T08:16:49.601Z,610
2023-03-02T08:17:52.249Z,609.9
2023-03-02T08:18:54.518Z,609.6
2023-03-02T08:19:57.069Z,609.6
2023-03-02T08:20:59.331Z,609.2
2023-03-02T08:22:01.625Z,609.2
2023-03-02T08:23:04.183Z,609.3
2023-03-02T08:24:06.468Z,609
2023-03-02T08:25:09.037Z,608.9
2023-03-02T08:27:16.141Z,609.5
2023-03-02T08:28:18.698Z,609.1
2023-03-02T08:29:21.250Z,608.6
2023-03-02T08:30:23.500Z,609
2023-03-02T08:31:26.424Z,608.9
2023-03-02T08:32:29.092Z,609.2
2023-03-02T08:33:31.448Z,609.1
2023-03-02T08:34:33.412Z,609.4
2023-03-02T08:35:35.119Z,609.3
2023-03-02T08:36:37.321Z,609.5
2023-03-02T08:37:39.882Z,609.2
2023-03-02T08:38:42.142Z,609.5
2023-03-02T08:39:44.664Z,609.2
2023-03-02T08:40:47.314Z,609.2
2023-03-02T08:41:49.511Z,609.2
2023-03-02T08:42:52.128Z,608.7
2023-03-02T08:43:54.814Z,609
2023-03-02T08:44:57.381Z,608.8
2023-03-02T08:46:00.182Z,609.1
2023-03-02T08:47:02.757Z,609.1
2023-03-02T08:48:05.194Z,609.2
2023-03-02T08:49:07.445Z,609.2
2023-03-02T08:50:10.071Z,609.8
2023-03-02T08:51:12.637Z,609.6
2023-03-02T08:52:14.298Z,609.5
2023-03-02T08:53:16.534Z,609.7
2023-03-02T08:54:18.772Z,609
2023-03-02T08:55:21.036Z,609.1
2023-03-02T08:56:23.378Z,609
2023-03-02T08:57:25.915Z,609.3
2023-03-02T08:58:28.280Z,609.2
2023-03-02T08:59:30.577Z,609.1
2023-03-02T09:00:33.544Z,609.2
2023-03-02T09:01:38.528Z,609.5
2023-03-02T09:02:41.154Z,609.8
2023-03-02T09:03:43.120Z,610
2023-03-02T09:04:45.317Z,609.7
2023-03-02T09:05:47.907Z,609.8
2023-03-02T09:06:49.956Z,609.7
2023-03-02T09:07:52.210Z,609.3
2023-03-02T09:08:54.732Z,609.2
2023-03-02T09:09:56.946Z,609.5
2023-03-02T09:10:59.194Z,609.4
2023-03-02T09:12:01.506Z,609.5
2023-03-02T09:13:03.786Z,609.4
2023-03-02T09:14:06.386Z,609.2
2023-03-02T09:15:08.958Z,609.3
2023-03-02T09:16:11.820Z,609.1
2023-03-02T09:17:14.168Z,609.1
2023-03-02T09:18:16.678Z,609
2023-03-02T09:19:19.208Z,609.1
2023-03-02T09:20:21.746Z,608.8
2023-03-02T09:21:23.997Z,609.2
2023-03-02T09:22:25.946Z,609.4
2023-03-02T09:23:28.227Z,609.5
2023-03-02T09:24:30.757Z,609.2
2023-03-02T09:25:32.993Z,609.2
2023-03-02T09:26:35.595Z,609
2023-03-02T09:27:38.361Z,609
2023-03-02T09:28:41.005Z,609.4
2023-03-02T09:29:43.370Z,609.5
2023-03-02T09:30:45.668Z,609.5
2023-03-02T09:31:48.432Z,609.3
2023-03-02T09:32:51.714Z,609.7
2023-03-02T09:33:54.313Z,609.4
2023-03-02T09:34:56.537Z,609.2
2023-03-02T09:35:58.774Z,608.9
2023-03-02T09:37:01.101Z,608.9
2023-03-02T09:38:04.012Z,608.4
2023-03-02T09:39:06.296Z,608.7
2023-03-02T09:40:08.556Z,608.6
2023-03-02T09:41:10.560Z,608
2023-03-02T09:42:13.108Z,608.6
2023-03-02T09:43:15.688Z,608.4
2023-03-02T09:44:18.056Z,608.3
2023-03-02T09:45:20.417Z,609
2023-03-02T09:46:23.236Z,608.4
2023-03-02T09:48:30.769Z,608.9
2023-03-02T09:49:32.727Z,608.7
2023-03-02T09:50:35.272Z,608.4
2023-03-02T09:51:37.562Z,608.5
2023-03-02T09:52:40.111Z,608.5
2023-03-02T09:53:42.655Z,608.5
2023-03-02T09:54:45.589Z,609
2023-03-02T09:55:48.181Z,609.2
2023-03-02T09:56:50.802Z,608.6
2023-03-02T09:57:53.099Z,609
2023-03-02T09:58:55.658Z,608.9
2023-03-02T10:01:03.314Z,609.1
2023-03-02T10:02:05.866Z,609
2023-03-02T10:04:14.129Z,608.7
2023-03-02T10:05:16.767Z,608.9
2023-03-02T10:06:19.408Z,608.8
2023-03-02T10:07:21.955Z,608.9
2023-03-02T10:08:23.985Z,609.6
2023-03-02T10:09:26.245Z,609
2023-03-02T10:10:28.836Z,608.7
2023-03-02T10:11:31.346Z,608.6
2023-03-02T10:12:33.055Z,608.7
2023-03-02T10:13:35.303Z,608.8
2023-03-02T10:14:37.867Z,608.4
2023-03-02T10:15:40.747Z,608.7
2023-03-02T10:16:43.584Z,608.8
2023-03-02T10:17:46.214Z,609.1
2023-03-02T10:18:48.784Z,608.9
2023-03-02T10:19:51.435Z,608.8
2023-03-02T10:20:53.656Z,608.7
2023-03-02T10:21:56.256Z,608.6
2023-03-02T10:22:58.495Z,608.6
2023-03-02T10:24:01.014Z,608.7
2023-03-02T10:25:03.580Z,608.6
2023-03-02T10:26:05.847Z,608.6
2023-03-02T10:27:08.232Z,608.7
2023-03-02T10:28:10.472Z,609.2
2023-03-02T10:29:13.024Z,609.1
2023-03-02T10:30:15.702Z,608.8
2023-03-02T10:31:18.498Z,609
2023-03-02T10:32:21.672Z,608.3
2023-03-02T10:33:24.250Z,608.8
2023-03-02T10:34:26.211Z,608.3
2023-03-02T10:35:28.946Z,608.4
2023-03-02T10:36:31.565Z,608.2
2023-03-02T10:37:34.095Z,608
2023-03-02T10:38:36.658Z,607.8
2023-03-02T10:39:39.197Z,607.8
2023-03-02T10:40:41.811Z,608
2023-03-02T10:41:44.389Z,608.2
2023-03-02T10:42:46.643Z,608.4
2023-03-02T10:43:49.222Z,608.6
2023-03-02T10:44:51.514Z,608
2023-03-02T10:45:54.110Z,608.2
2023-03-02T10:46:56.760Z,608.1
2023-03-02T10:47:59.223Z,609
2023-03-02T10:49:01.902Z,608.2
2023-03-02T10:50:04.577Z,608.6
2023-03-02T10:51:07.198Z,608.2
2023-03-02T10:52:09.173Z,608.1
2023-03-02T10:53:10.893Z,608.7
2023-03-02T10:54:13.185Z,608.2
2023-03-02T10:55:15.449Z,608.3
2023-03-02T10:56:17.377Z,608.6
2023-03-02T10:57:19.304Z,608.6
2023-03-02T10:58:21.570Z,609
2023-03-02T10:59:24.144Z,608.2
2023-03-02T11:00:26.734Z,608.6
2023-03-02T11:01:29.273Z,608.3
2023-03-02T11:02:31.825Z,608.9
2023-03-02T11:03:34.322Z,608.4
2023-03-02T11:04:36.954Z,608.7
2023-03-02T11:05:39.664Z,608.8
2023-03-02T11:06:42.227Z,608.9
2023-03-02T11:07:44.471Z,608.7
2023-03-02T11:08:47.026Z,608.7
2023-03-02T11:09:49.560Z,609.2
2023-03-02T11:10:52.083Z,608.8
2023-03-02T11:11:54.959Z,608.5
2023-03-02T11:12:57.216Z,608.6
2023-03-02T11:13:59.444Z,608.6
2023-03-02T11:15:01.956Z,608.1
2023-03-02T11:16:05.102Z,608.1
2023-03-02T11:17:07.518Z,608.4
2023-03-02T11:18:09.730Z,608.4
2023-03-02T11:19:12.198Z,608.8
2023-03-02T11:20:14.458Z,608.7
2023-03-02T11:21:17.030Z,608.8
2023-03-02T11:22:19.350Z,608.8
2023-03-02T11:23:21.852Z,609.1
2023-03-02T11:24:24.345Z,609.2
2023-03-02T11:25:26.000Z,609.7
2023-03-02T11:26:28.227Z,609.8
2023-03-02T11:27:30.437Z,609.8
2023-03-02T11:28:32.946Z,609.7
2023-03-02T11:29:35.478Z,609.9
2023-03-02T11:30:38.002Z,609.8
2023-03-02T11:31:41.096Z,609.8
2023-03-02T11:32:43.935Z,610.1
2023-03-02T11:33:46.898Z,609.9
2023-03-02T11:34:49.538Z,609.8
2023-03-02T11:35:52.193Z,610
2023-03-02T11:36:55.101Z,610.1
2023-03-02T11:37:57.446Z,610.2
2023-03-02T11:38:59.932Z,610.4
2023-03-02T11:40:02.210Z,610.7
2023-03-02T11:41:04.500Z,610.9
2023-03-02T11:42:06.908Z,611.1
2023-03-02T11:43:09.441Z,611.2
2023-03-02T11:44:11.668Z,611.3
2023-03-02T11:45:15.663Z,611
2023-03-02T11:47:23.489Z,611.2
2023-03-02T11:48:25.766Z,611.1
2023-03-02T11:49:27.729Z,611.3
2023-03-02T11:50:30.372Z,612.1
2023-03-02T11:51:34.700Z,611.4
2023-03-02T11:52:37.390Z,611.2
2023-03-02T11:53:40.119Z,611.1
2023-03-02T11:54:42.404Z,611
2023-03-02T11:55:44.896Z,610.9
2023-03-02T11:56:47.444Z,610.9
2023-03-02T11:57:50.052Z,611.2
2023-03-02T11:58:52.307Z,611.6
2023-03-02T11:59:54.503Z,611.5
2023-03-02T12:00:57.025Z,611.7
2023-03-02T12:02:00.409Z,611.8
2023-03-02T12:03:02.924Z,611.3
2023-03-02T12:04:06.557Z,611.9
2023-03-02T12:05:09.251Z,612
2023-03-02T12:06:11.592Z,612.2
2023-03-02T12:07:14.150Z,611.9
2023-03-02T12:08:16.686Z,611.5
2023-03-02T12:09:19.430Z,612
2023-03-02T12:10:22.095Z,612.2
2023-03-02T12:11:24.052Z,612.2
2023-03-02T12:12:26.588Z,611.9
2023-03-02T12:13:29.093Z,612
2023-03-02T12:14:31.397Z,612.3
2023-03-02T12:15:33.881Z,612.3
2023-03-02T12:16:37.983Z,612.4
2023-03-02T12:17:40.634Z,612.3
2023-03-02T12:18:43.231Z,612.1
2023-03-02T12:19:45.911Z,612
2023-03-02T12:20:48.467Z,612.4
2023-03-02T12:21:51.060Z,612.3
2023-03-02T12:22:53.447Z,612.2
2023-03-02T12:23:55.980Z,612.3
2023-03-02T12:24:58.506Z,612.1
2023-03-02T12:26:01.020Z,612
2023-03-02T12:27:03.580Z,612.3
2023-03-02T12:28:06.106Z,612.3
2023-03-02T12:29:08.615Z,612.1
2023-03-02T12:30:11.461Z,612.2
2023-03-02T12:31:14.311Z,612.6
2023-03-02T12:32:16.723Z,612.6
2023-03-02T12:33:19.231Z,612.3
2023-03-02T12:34:21.621Z,612.3
2023-03-02T12:35:24.036Z,612.4
2023-03-02T12:36:26.565Z,612.6
2023-03-02T12:37:29.183Z,612.7
2023-03-02T12:38:32.225Z,612.9
2023-03-02T12:39:34.452Z,613.2
2023-03-02T12:40:36.403Z,613
2023-03-02T12:41:38.965Z,612.8
2023-03-02T12:42:40.937Z,612.8
2023-03-02T12:43:42.963Z,613.2
2023-03-02T12:44:45.204Z,613.3
2023-03-02T12:45:47.750Z,613.5
2023-03-02T12:46:49.734Z,612.8
2023-03-02T12:47:53.473Z,612.8
2023-03-02T12:48:56.823Z,612.9
2023-03-02T12:49:59.401Z,613.1
2023-03-02T12:51:01.765Z,613.1
2023-03-02T12:52:05.008Z,613.3
2023-03-02T12:53:07.132Z,613.1
2023-03-02T12:54:09.805Z,613.3
2023-03-02T12:55:12.042Z,613.2
2023-03-02T12:56:14.427Z,613.6
2023-03-02T12:57:17.007Z,613.7
2023-03-02T12:58:19.598Z,613.4
2023-03-02T12:59:21.879Z,613.5
2023-03-02T13:00:23.906Z,613.9
2023-03-02T13:01:26.889Z,613.7
2023-03-02T13:02:29.186Z,613.9
2023-03-02T13:03:31.421Z,613.7
2023-03-02T13:04:34.166Z,613.7
2023-03-02T13:05:36.718Z,614
2023-03-02T13:06:39.319Z,613.9
2023-03-02T13:07:41.868Z,613.6
2023-03-02T13:08:44.808Z,614.6
2023-03-02T13:10:52.423Z,614
2023-03-02T13:11:55.105Z,614.1
2023-03-02T13:12:57.888Z,614.4
2023-03-02T13:13:59.888Z,614.5
2023-03-02T13:15:02.184Z,614.6
2023-03-02T13:16:04.481Z,614.5
2023-03-02T13:17:07.258Z,614.3
2023-03-02T13:19:15.782Z,614.3
2023-03-02T13:20:18.343Z,614.5
2023-03-02T13:21:20.577Z,614.6
2023-03-02T13:22:23.446Z,614.6
2023-03-02T13:23:26.004Z,614.2
2023-03-02T13:24:28.681Z,614.6
2023-03-02T13:25:30.936Z,614.6
2023-03-02T13:26:35.663Z,614.7
2023-03-02T13:27:38.363Z,614.5
2023-03-02T13:28:40.666Z,614.7
2023-03-02T13:29:42.951Z,614.6
2023-03-02T13:30:45.768Z,614.3
2023-03-02T13:31:48.665Z,614.3
2023-03-02T13:32:50.978Z,614.5
2023-03-02T13:33:53.226Z,614.9
2023-03-02T13:34:55.779Z,614.4
2023-03-02T13:35:57.761Z,614.7
2023-03-02T13:37:00.027Z,614.4
2023-03-02T13:38:02.941Z,614.9
2023-03-02T13:39:05.474Z,614.7
2023-03-02T13:40:08.521Z,614.4
2023-03-02T13:41:12.881Z,614.3
2023-03-02T13:42:15.467Z,614.6